Latest Weather Observations for Jervis Bay Airfield

IDN60901

Issued at 11:41 pm EST Saturday 3 June 2023 (issued every 10 minutes, with the page automatically refreshed every 10 minutes)

About weather observations | Map of Canberra area stations | Latest observations for Canberra area | Other Formats
Station Details ID: 068264 Name: JERVIS BAY AIRFIELD AWS Lat: -35.14 Lon: 150.70 Height: 57.18 m
Data from the previous 72 hours. | See also: Recent months at Jervis Bay Airfield
Date/Time
EST
Temp
°C
App
Temp
°C
Dew
Point
°C
Rel
Hum
%
Delta-T
°C
Wind Press
QNH
hPa
Press
MSL
hPa
Rain since
9am
mm
Dir  Spd
km/h
Gust
km/h
Spd
kts
Gust
kts
03/11:30pm 16.2 12.3 10.7 70 2.9 SSE 22 32 12 17 1030.4 1030.4 0.0
03/11:00pm 16.1 11.4 10.8 71 2.8 SSE 26 32 14 17 1030.1 1030.1 0.0
03/10:30pm 16.3 12.0 12.1 76 2.3 SSE 26 35 14 19 1029.8 1029.8 0.0
03/10:00pm 16.3 12.0 11.9 75 2.4 SSE 26 37 14 20 1029.8 1029.8 0.0
03/09:30pm 16.3 12.1 12.3 77 2.2 SSE 26 37 14 20 1029.6 1029.6 0.0
03/09:00pm 16.4 12.1 12.2 76 2.3 SSE 26 33 14 18 1029.4 1029.4 0.0
03/08:30pm 16.4 12.7 12.6 78 2.1 SSE 24 32 13 17 1028.9 1028.9 0.0
03/08:00pm 16.6 12.8 12.4 76 2.3 SSE 24 32 13 17 1028.6 1028.6 0.0
03/07:30pm 16.8 13.3 12.3 75 2.5 SSE 22 32 12 17 1028.3 1028.3 0.0
03/07:00pm 16.7 14.3 12.8 78 2.2 SSE 17 24 9 13 1027.8 1027.8 0.0
03/06:30pm 16.7 14.7 12.8 78 2.2 SSE 15 20 8 11 1027.2 1027.2 0.0
03/06:00pm 16.6 15.0 12.8 78 2.1 SSE 13 19 7 10 1026.7 1026.7 0.0
03/05:30pm 16.8 16.0 12.9 78 2.2 S 9 13 5 7 1026.1 1026.1 0.0
03/05:00pm 16.9 15.8 13.2 79 2.1 S 11 15 6 8 1025.8 1025.8 0.0
03/04:30pm 17.2 16.0 13.9 81 1.9 S 13 15 7 8 1025.3 1025.3 0.0
03/04:00pm 17.5 15.5 14.0 80 2.0 S 17 20 9 11 1025.0 1025.0 0.0
03/03:30pm 18.3 15.9 13.8 75 2.6 S 19 24 10 13 1024.5 1024.5 0.0
03/03:00pm 18.7 17.1 12.9 69 3.3 S 13 19 7 10 1024.2 1024.2 0.0
03/02:30pm 19.2 17.4 12.2 64 3.9 S 13 19 7 10 1024.2 1024.2 0.0
03/02:00pm 18.9 16.3 11.9 64 3.9 SSW 17 22 9 12 1024.1 1024.1 0.0
03/01:30pm 19.3 16.2 12.3 64 3.9 SSW 20 26 11 14 1024.0 1024.0 0.0
03/01:00pm 19.6 16.8 13.1 66 3.7 SSW 20 26 11 14 1023.8 1023.8 0.0
03/12:30pm 19.6 17.1 12.4 63 4.0 SSW 17 24 9 13 1023.9 1023.9 0.0
03/12:00pm 19.0 17.4 13.8 72 3.0 SSW 15 20 8 11 1024.2 1024.2 0.0
03/11:30am 18.6 18.0 13.5 72 2.9 SW 9 15 5 8 1024.6 1024.6 0.0
03/11:00am 19.7 18.5 11.5 59 4.5 SW 9 13 5 7 1024.8 1024.8 0.0
03/10:30am 18.7 17.7 11.0 61 4.2 WNW 7 9 4 5 1024.9 1024.9 0.0
03/10:00am 17.7 17.1 12.2 70 3.0 NNW 7 9 4 5 1024.9 1024.9 0.0
03/09:30am 17.1 16.7 12.4 74 2.6 N 6 7 3 4 1024.7 1024.7 0.0
03/09:00am 16.8 17.7 12.9 78 2.2 CALM 0 0 0 0 1024.4 1024.4 0.4
03/08:30am 16.7 17.1 11.2 70 3.0 CALM 0 2 0 1 1024.3 1024.3 0.4
03/08:00am 14.7 14.0 11.5 81 1.7 NNW 6 9 3 5 1024.0 1024.0 0.4
03/07:30am 13.6 12.8 11.1 85 1.3 NE 6 7 3 4 1023.5 1023.5 0.4
03/07:00am 13.6 12.7 11.5 87 1.1 NW 7 11 4 6 1023.4 1023.4 0.4
03/06:30am 14.1 13.6 12.1 88 1.1 N 6 11 3 6 1022.9 1022.9 0.4
03/06:00am 14.4 14.0 12.4 88 1.1 N 6 7 3 4 1023.0 1023.0 0.4
03/05:30am 15.1 14.1 13.3 89 1.0 N 11 15 6 8 1022.9 1022.9 0.4
03/05:00am 15.0 15.0 13.5 91 0.8 NNW 6 9 3 5 1023.0 1023.0 0.4
03/04:30am 15.3 14.4 13.7 90 0.9 N 11 15 6 8 1022.9 1022.9 0.2
03/04:00am 15.2 14.9 13.4 89 1.0 NE 7 11 4 6 1022.5 1022.5 0.2
03/03:30am 15.4 14.5 13.6 89 1.0 N 11 15 6 8 1022.4 1022.4 0.2
03/03:00am 15.4 14.5 13.6 89 1.0 N 11 17 6 9 1022.5 1022.5 0.2
03/02:30am 15.3 14.8 13.7 90 0.9 N 9 15 5 8 1022.7 1022.7 0.2
03/02:00am 14.8 14.6 13.5 92 0.7 N 7 11 4 6 1023.2 1023.2 0.2
03/01:30am 14.5 14.4 13.4 93 0.6 NNW 6 9 3 5 1023.6 1023.6 0.2
03/01:00am 15.0 14.8 13.5 91 0.8 NNW 7 13 4 7 1023.6 1023.6 0.2
03/12:30am 14.8 15.2 13.7 93 0.6 NW 4 7 2 4 1023.7 1023.7 0.0
03/12:00am 14.8 13.9 13.8 94 0.6 N 11 15 6 8 1023.8 1023.8 0.0
 
Date/Time
EST
Temp
°C
App
Temp
°C
Dew
Point
°C
Rel
Hum
%
Delta-T
°C
Wind Press
QNH
hPa
Press
MSL
hPa
Rain since
9am
mm
Dir  Spd
km/h
Gust
km/h
Spd
kts
Gust
kts
02/11:30pm 14.7 14.0 14.2 97 0.3 N 11 13 6 7 1023.7 1023.7 0.0
02/11:00pm 13.4 14.2 12.6 95 0.4 CALM 0 7 0 4 1024.1 1024.1 0.0
02/10:30pm 13.8 13.0 13.0 95 0.4 WNW 9 11 5 6 1024.2 1024.2 0.0
02/10:00pm 14.4 15.5 13.6 95 0.4 CALM 0 0 0 0 1024.4 1024.4 0.0
02/09:30pm 14.6 14.4 13.6 94 0.6 NW 7 9 4 5 1024.3 1024.3 0.0
02/09:00pm 15.0 14.5 13.9 93 0.6 NNW 9 11 5 6 1024.2 1024.2 0.0
02/08:30pm 16.2 16.1 14.9 92 0.8 N 9 15 5 8 1024.1 1024.1 0.0
02/08:10pm 16.9 16.2 15.4 91 0.9 NNE 13 19 7 10 1024.1 1024.1 0.0
02/08:00pm 17.0 16.3 15.5 91 0.9 NNE 13 17 7 9 1024.0 1024.0 0.0
02/07:35pm 17.0 16.8 15.7 92 0.8 NNE 11 15 6 8 1023.9 1023.9 0.0
02/07:30pm 16.9 16.3 15.6 92 0.8 NNE 13 17 7 9 1023.9 1023.9 0.0
02/07:00pm 15.8 16.1 15.0 95 0.5 ENE 7 11 4 6 1023.7 1023.7 0.0
02/06:30pm 15.3 14.9 14.2 93 0.6 ENE 9 11 5 6 1023.5 1023.5 0.0
02/06:00pm 15.6 15.6 14.3 92 0.7 ENE 7 11 4 6 1023.5 1023.5 0.0
02/05:30pm 16.0 15.3 14.4 90 0.9 NE 11 15 6 8 1023.3 1023.3 0.0
02/05:27pm 16.0 14.9 14.4 90 0.9 NE 13 15 7 8 1023.3 1023.3 0.0
02/05:00pm 16.2 15.5 14.4 89 1.0 NE 11 15 6 8 1022.9 1022.9 0.0
02/04:53pm 16.2 15.5 14.4 89 1.0 NE 11 17 6 9 1022.8 1022.8 0.0
02/04:30pm 16.6 15.1 14.2 86 1.4 NE 15 19 8 10 1022.6 1022.6 0.0
02/04:00pm 17.3 15.8 14.2 82 1.8 NNE 15 20 8 11 1022.5 1022.5 0.0
02/03:30pm 17.4 15.8 13.9 80 2.0 NE 15 19 8 10 1022.4 1022.4 0.0
02/03:00pm 18.5 16.9 14.0 75 2.6 NE 15 19 8 10 1022.5 1022.5 0.0
02/02:30pm 18.5 17.1 13.4 72 2.9 NE 13 17 7 9 1022.6 1022.6 0.0
02/02:00pm 18.8 17.2 12.8 68 3.4 NE 13 19 7 10 1022.7 1022.7 0.0
02/01:30pm 19.0 18.3 13.2 69 3.3 NE 9 13 5 7 1022.9 1022.9 0.0
02/01:00pm 17.9 16.7 12.8 72 2.8 NE 11 15 6 8 1023.3 1023.3 0.0
02/12:30pm 18.3 17.5 13.0 71 3.0 ENE 9 15 5 8 1023.4 1023.4 0.0
02/12:00pm 18.6 17.7 13.7 73 2.8 NE 11 13 6 7 1023.8 1023.8 0.0
02/11:30am 18.0 17.2 12.9 72 2.9 W 9 13 5 7 1024.3 1024.3 0.0
02/11:00am 18.3 18.4 12.7 70 3.1 NNW 4 13 2 7 1024.8 1024.8 0.0
02/10:30am 17.5 17.0 12.8 74 2.6 NW 7 11 4 6 1025.1 1025.1 0.0
02/10:00am 16.5 16.0 12.8 79 2.0 WNW 7 9 4 5 1025.2 1025.2 0.0
02/09:30am 15.6 15.7 13.8 89 1.0 W 6 9 3 5 1025.1 1025.1 0.0
02/09:00am 15.0 14.9 13.4 90 0.9 WNW 6 7 3 4 1025.1 1025.1 0.2
02/08:30am 14.6 14.2 13.1 91 0.8 W 7 9 4 5 1024.8 1024.8 0.2
02/08:00am 13.1 12.6 12.6 97 0.3 W 7 9 4 5 1024.6 1024.6 0.2
02/07:30am 12.0 11.6 11.2 95 0.4 SW 4 6 2 3 1024.2 1024.2 0.2
02/07:00am 12.9 11.8 12.0 94 0.5 S 9 11 5 6 1023.8 1023.8 0.2
02/06:30am 13.2 12.8 12.3 94 0.5 W 6 9 3 5 1023.4 1023.4 0.2
02/06:00am 12.9 12.2 12.1 95 0.4 W 7 9 4 5 1023.2 1023.2 0.2
02/05:30am 13.1 12.5 12.2 94 0.5 WNW 7 9 4 5 1023.2 1023.2 0.2
02/05:00am 13.1 13.4 12.2 94 0.5 W 2 7 1 4 1023.0 1023.0 0.2
02/04:30am 13.5 13.0 12.6 94 0.5 W 7 9 4 5 1023.0 1023.0 0.2
02/04:00am 13.5 13.2 12.6 94 0.5 W 6 9 3 5 1023.0 1023.0 0.2
02/03:30am 13.5 13.6 12.6 94 0.5 W 4 7 2 4 1023.2 1023.2 0.2
02/03:00am 13.5 13.0 12.6 94 0.5 W 7 9 4 5 1023.1 1023.1 0.2
02/02:30am 13.4 12.9 12.5 94 0.5 SSW 7 9 4 5 1023.1 1023.1 0.2
02/02:00am 13.5 13.2 12.6 94 0.5 WSW 6 7 3 4 1023.2 1023.2 0.2
02/01:30am 13.4 14.1 12.3 93 0.6 CALM 0 0 0 0 1023.0 1023.0 0.2
02/01:00am 13.7 14.6 12.8 94 0.5 CALM 0 0 0 0 1023.0 1023.0 0.2
02/12:30am 13.8 13.4 12.4 91 0.8 SE 6 7 3 4 1022.9 1022.9 0.2
02/12:00am 14.1 13.0 12.0 87 1.1 ESE 9 11 5 6 1022.8 1022.8 0.2
 
Date/Time
EST
Temp
°C
App
Temp
°C
Dew
Point
°C
Rel
Hum
%
Delta-T
°C
Wind Press
QNH
hPa
Press
MSL
hPa
Rain since
9am
mm
Dir  Spd
km/h
Gust
km/h
Spd
kts
Gust
kts
01/11:30pm 14.3 13.9 12.5 89 1.0 SE 6 7 3 4 1022.9 1022.9 0.2
01/11:00pm 14.3 14.0 12.7 90 0.9 SSE 6 9 3 5 1022.9 1022.9 0.2
01/10:30pm 14.0 14.9 12.9 93 0.6 CALM 0 7 0 4 1022.7 1022.7 0.0
01/10:00pm 14.1 14.9 12.7 91 0.8 CALM 0 0 0 0 1022.5 1022.5 0.0
01/09:30pm 14.6 14.1 12.6 88 1.1 SE 7 9 4 5 1022.3 1022.3 0.0
01/09:00pm 14.9 13.3 12.8 87 1.2 SSE 13 15 7 8 1022.0 1022.0 0.0
01/08:30pm 15.0 14.5 12.7 86 1.3 SE 7 9 4 5 1021.7 1021.7 0.0
01/08:00pm 15.2 14.8 12.5 84 1.5 SSE 6 9 3 5 1021.6 1021.6 0.0
01/07:30pm 15.4 15.1 12.7 84 1.5 S 6 13 3 7 1021.3 1021.3 0.0
01/07:00pm 15.3 15.2 13.2 87 1.2 S 6 7 3 4 1020.8 1020.7 0.0
01/06:30pm 15.3 14.4 12.6 84 1.5 SSW 9 17 5 9 1020.0 1019.9 0.0
01/06:00pm 16.0 13.2 12.6 80 1.9 SE 19 28 10 15 1019.3 1019.2 0.0
01/05:30pm 16.2 13.4 12.6 79 2.0 SE 19 32 10 17 1018.7 1018.7 0.0
01/05:00pm 16.2 13.1 12.2 77 2.2 SSE 20 32 11 17 1018.2 1018.2 0.0
01/04:30pm 16.7 14.0 13.0 79 2.1 SSE 19 28 10 15 1018.0 1018.0 0.0
01/04:00pm 16.8 12.4 12.9 78 2.2 SE 28 37 15 20 1017.1 1017.1 0.0
01/03:30pm 17.8 13.1 13.3 75 2.5 SSE 30 41 16 22 1016.3 1016.3 0.0
01/03:19pm 19.2 16.1 11.5 61 4.2 WSW 19 41 10 22 1016.1 1016.1 0.0
01/03:00pm 22.1 18.6 8.6 42 7.2 W 17 22 9 12 1015.5 1015.5 0.0
01/02:30pm 22.0 18.0 8.9 43 7.0 WNW 20 30 11 16 1015.2 1015.2 0.0
01/02:00pm 21.8 17.8 9.0 44 6.8 WNW 20 28 11 15 1015.0 1015.0 0.0
01/01:30pm 21.9 17.2 9.1 44 6.8 WNW 24 37 13 20 1015.0 1015.0 0.0
01/01:00pm 21.9 16.7 8.8 43 7.0 WNW 26 35 14 19 1015.0 1015.0 0.0
01/12:30pm 21.7 17.3 8.9 44 6.8 WNW 22 32 12 17 1015.1 1015.1 0.0
01/12:00pm 21.6 18.0 10.7 50 6.0 NW 20 30 11 16 1015.4 1015.4 0.0
01/11:30am 20.9 17.4 10.1 50 5.8 NW 19 24 10 13 1015.7 1015.7 0.0
01/11:00am 20.3 16.8 10.1 52 5.5 NW 19 32 10 17 1016.0 1016.0 0.0
01/10:30am 19.7 15.4 10.7 56 4.9 NW 24 37 13 20 1015.7 1015.7 0.0
01/10:00am 19.6 16.0 10.6 56 4.9 NW 20 32 11 17 1015.8 1015.8 0.0
01/09:30am 18.9 16.3 10.7 59 4.4 NNW 15 22 8 12 1016.1 1016.1 0.0
01/09:00am 16.2 15.2 10.3 68 3.1 N 6 11 3 6 1016.0 1016.0 0.0
01/08:30am 16.9 14.5 10.1 64 3.6 NNW 13 19 7 10 1015.8 1015.8 0.0
01/08:00am 17.0 13.7 9.4 61 4.0 NW 17 22 9 12 1015.6 1015.6 0.0
01/07:30am 16.6 13.3 9.5 63 3.7 NW 17 22 9 12 1015.6 1015.6 0.0
01/07:00am 16.7 13.2 8.9 60 4.0 WNW 17 22 9 12 1015.4 1015.4 0.0
01/06:30am 17.2 13.7 8.6 57 4.4 NW 17 26 9 14 1015.1 1015.1 0.0
01/06:00am 17.3 13.1 8.2 55 4.6 WNW 20 28 11 15 1015.1 1015.1 0.0
01/05:30am 17.6 13.5 8.7 56 4.6 WNW 20 35 11 19 1014.2 1014.2 0.0
01/05:00am 17.5 12.3 8.9 57 4.5 WNW 26 39 14 21 1013.6 1013.6 0.0
01/04:30am 17.6 12.8 9.0 57 4.5 WNW 24 33 13 18 1013.5 1013.4 0.0
01/04:03am 17.9 11.5 9.3 57 4.5 WNW 33 52 18 28 1013.4 1013.3 0.0
01/04:00am 18.0 11.2 9.1 56 4.7 WNW 35 52 19 28 1013.3 1013.2 0.0
01/03:35am 18.0 11.6 9.4 57 4.5 WNW 33 57 18 31 1013.1 1013.0 0.0
01/03:30am 17.9 11.7 9.5 58 4.4 WNW 32 48 17 26 1013.2 1013.1 0.0
01/03:00am 18.0 12.6 9.4 57 4.5 WNW 28 50 15 27 1013.6 1013.6 0.0
01/02:39am 17.8 12.4 9.4 58 4.4 WNW 28 46 15 25 1013.5 1013.4 0.0
01/02:30am 17.7 12.7 9.6 59 4.3 WNW 26 37 14 20 1013.7 1013.7 0.0
01/02:00am 18.1 13.8 9.5 57 4.5 WNW 22 44 12 24 1013.7 1013.7 0.0
01/01:30am 18.0 12.5 9.1 56 4.7 WNW 28 43 15 23 1013.8 1013.8 0.0
01/01:00am 17.8 12.3 9.2 57 4.5 WNW 28 43 15 23 1014.1 1014.1 0.0
01/12:30am 17.7 13.0 9.1 57 4.5 WNW 24 37 13 20 1014.6 1014.6 0.0
01/12:00am 17.3 14.6 9.0 58 4.3 WNW 13 22 7 12 1014.8 1014.8 0.0

Latest Capital City Observations: Canberra | Sydney | Melbourne | Brisbane | Adelaide | Perth | Hobart | Darwin

Other formats

Comma delimited format used in spreadsheet applications
http://www.bom.gov.au/fwo/IDN60903/IDN60903.94751.axf

JavaScript Object Notation format (JSON) in row-major order
http://www.bom.gov.au/fwo/IDN60903/IDN60903.94751.json

Data quality

Most of these data are generated automatically and are frequently updated. Quality checks on data are not normally performed. It is possible for incorrect values to appear. Refer to information at About Latest Weather Observations and please check the disclaimer before using these data.